Time;durP1;ratioP1;P1;durP2;ratioP2;P2;SDS_P1;SDS_P2;PMS_P1;PMS_P2;Temp;Humidity;BMP_temperature;BMP_pressure;BME280_temperature;BME280_humidity;BME280_pressure;Samples;Min_cycle;Max_cycle;Signal;HPM_P1;HPM_P2
2022/12/13 00:01:47;;;;;;;1999.90;999.90;;;;;;;-8.37;100.00;94362.00;5057695;28;20177;-63
2022/12/13 00:04:13;;;;;;;1999.90;999.90;;;;;;;-8.37;100.00;94361.19;5056760;28;20197;-63
2022/12/13 00:06:38;;;;;;;1999.90;999.90;;;;;;;-8.39;100.00;94358.06;5056750;28;20196;-66
2022/12/13 00:09:04;;;;;;;1999.90;999.90;;;;;;;-8.40;100.00;94361.81;5056679;28;20208;-63
2022/12/13 00:11:30;;;;;;;1999.90;999.90;;;;;;;-8.46;100.00;94352.47;5056617;28;20178;-60
2022/12/13 00:13:55;;;;;;;1999.90;999.90;;;;;;;-8.43;100.00;94357.13;5056589;28;20182;-62
2022/12/13 00:16:22;;;;;;;1999.90;999.90;;;;;;;-8.46;100.00;94352.47;5056711;28;20173;-61
2022/12/13 00:18:49;;;;;;;1999.90;999.90;;;;;;;-8.46;100.00;94349.81;5056090;28;20244;-61
2022/12/13 00:21:17;;;;;;;1999.90;999.90;;;;;;;-8.47;100.00;94350.91;5057002;28;20176;-61
2022/12/13 00:23:42;;;;;;;1999.90;999.90;;;;;;;-8.44;100.00;94352.94;5056920;28;20170;-61
2022/12/13 00:26:15;;;;;;;1999.90;999.90;;;;;;;-8.46;100.00;94349.81;5056734;28;20246;-72
2022/12/13 00:28:41;;;;;;;1999.90;999.90;;;;;;;-8.48;100.00;94349.38;5056819;28;20194;-59
2022/12/13 00:31:07;;;;;;;1999.90;999.90;;;;;;;-8.48;100.00;94349.38;5056529;28;20192;-58
2022/12/13 00:33:35;;;;;;;1999.90;999.90;;;;;;;-8.49;100.00;94342.53;5056688;28;20174;-59
2022/12/13 00:36:03;;;;;;;1999.90;999.90;;;;;;;-8.49;100.00;94345.16;5056199;28;20170;-59
2022/12/13 00:38:28;;;;;;;1999.90;999.90;;;;;;;-8.55;100.00;94346.41;5056634;28;20269;-59
2022/12/13 00:40:53;;;;;;;1999.90;999.90;;;;;;;-8.59;100.00;94348.91;5056132;28;20237;-60
2022/12/13 00:43:19;;;;;;;1999.90;999.90;;;;;;;-8.61;100.00;94342.34;5056655;28;20274;-60
2022/12/13 00:45:44;;;;;;;1999.90;999.90;;;;;;;-8.66;100.00;94353.88;5056112;28;20209;-60
2022/12/13 00:48:09;;;;;;;1999.90;999.90;;;;;;;-8.67;100.00;94354.94;5056360;28;20178;-63
2022/12/13 00:50:36;;;;;;;1999.90;999.90;;;;;;;-8.72;100.00;94349.00;5055799;28;20208;-63
2022/12/13 00:53:02;;;;;;;1999.90;999.90;;;;;;;-8.72;100.00;94344.50;5055485;28;20170;-63
2022/12/13 00:55:27;;;;;;;1999.90;999.90;;;;;;;-8.76;100.00;94348.06;5055913;28;20229;-63
2022/12/13 00:57:53;;;;;;;1999.90;999.90;;;;;;;-8.78;100.00;94350.25;5055547;28;20189;-67
2022/12/13 01:00:18;;;;;;;1999.90;999.90;;;;;;;-8.80;100.00;94349.78;5056315;28;20208;-62
2022/12/13 01:02:44;;;;;;;1999.90;999.90;;;;;;;-8.80;100.00;94347.13;5055697;28;20216;-64
2022/12/13 01:05:10;;;;;;;1999.90;999.90;;;;;;;-8.84;100.00;94346.19;5056310;28;20251;-73
2022/12/13 01:07:37;;;;;;;1999.90;999.90;;;;;;;-8.89;100.00;94338.41;5055614;28;20171;-73
2022/12/13 01:10:06;;;;;;;1999.90;999.90;;;;;;;-8.94;100.00;94341.19;5055244;28;20178;-72
2022/12/13 01:12:35;;;;;;;1999.90;999.90;;;;;;;-9.03;100.00;94350.97;5055489;28;20201;-72
2022/12/13 01:15:00;;;;;;;1999.90;999.90;;;;;;;-9.09;100.00;94349.53;5056021;28;20182;-74
2022/12/13 01:17:26;;;;;;;1999.90;999.90;;;;;;;-9.08;100.00;94346.59;5055121;28;20222;-73
2022/12/13 01:19:52;;;;;;;1999.90;999.90;;;;;;;-9.09;100.00;94344.25;5054979;28;20296;-74
2022/12/13 01:22:17;;;;;;;1999.90;999.90;;;;;;;-9.18;100.00;94346.13;5055295;28;20175;-60
2022/12/13 01:24:43;;;;;;;1999.90;999.90;;;;;;;-9.26;100.00;94342.34;5055233;28;20193;-62
2022/12/13 01:27:08;;;;;;;1999.90;999.90;;;;;;;-9.32;100.00;94338.28;5055047;28;20166;-62
2022/12/13 01:29:35;;;;;;;1999.90;999.90;;;;;;;-9.28;100.00;94339.25;5055158;28;20173;-62
2022/12/13 01:32:00;;;;;;;1999.90;999.90;;;;;;;-9.31;100.00;94336.41;5055120;28;20232;-62
2022/12/13 01:34:28;;;;;;;1999.90;999.90;;;;;;;-9.29;100.00;94331.63;5055693;28;20178;-62
2022/12/13 01:36:55;;;;;;;1999.90;999.90;;;;;;;-9.33;100.00;94334.06;5054830;28;20206;-64
2022/12/13 01:39:21;;;;;;;1999.90;999.90;;;;;;;-9.32;100.00;94330.38;5056014;28;20213;-64
2022/12/13 01:41:50;;;;;;;1999.90;999.90;;;;;;;-9.29;100.00;94321.81;5054920;28;20534;-71
2022/12/13 01:44:53;;;;;;;1999.90;999.90;;;;;;;-9.26;100.00;94320.44;5055395;28;20295;-65
2022/12/13 01:47:28;;;;;;;1999.90;999.90;;;;;;;-9.27;100.00;94317.03;5055004;28;20178;-66
2022/12/13 01:49:57;;;;;;;1999.90;999.90;;;;;;;-9.28;100.00;94319.97;5055060;28;20184;-68
2022/12/13 01:52:23;;;;;;;1999.90;999.90;;;;;;;-9.29;100.00;94310.50;5055215;28;20178;-65
2022/12/13 01:54:54;;;;;;;1999.90;999.90;;;;;;;-9.29;100.00;94313.13;5054756;28;20242;-65
2022/12/13 01:57:22;;;;;;;1999.90;999.90;;;;;;;-9.26;100.00;94302.72;5055154;28;20209;-63
2022/12/13 01:59:49;;;;;;;1999.90;999.90;;;;;;;-9.26;100.00;94307.25;5054595;28;20556;-62
2022/12/13 02:02:15;;;;;;;1999.90;999.90;;;;;;;-9.27;100.00;94301.16;5054947;28;20240;-64
2022/12/13 02:04:57;;;;;;;1999.90;999.90;;;;;;;-9.27;100.00;94305.66;5054147;28;20197;-64
2022/12/13 02:07:27;;;;;;;1999.90;999.90;;;;;;;-9.23;100.00;94301.31;5054669;28;20174;-63
2022/12/13 02:09:56;;;;;;;1999.90;999.90;;;;;;;-9.27;100.00;94303.03;5055083;28;20507;-63
2022/12/13 02:12:28;;;;;;;1999.90;999.90;;;;;;;-9.26;100.00;94294.78;5054351;28;20425;-63
2022/12/13 02:14:54;;;;;;;1999.90;999.90;;;;;;;-9.34;100.00;94297.41;5054759;28;20162;-64
2022/12/13 02:17:38;;;;;;;1999.90;999.90;;;;;;;-9.29;100.00;94292.00;5054195;28;20475;-63
2022/12/13 02:20:34;;;;;;;1999.90;999.90;;;;;;;-9.28;100.00;94288.25;5054082;28;20206;-63
2022/12/13 02:23:25;;;;;;;1999.90;999.90;;;;;;;-9.25;100.00;94274.44;5054586;28;20182;-63
2022/12/13 02:26:24;;;;;;;1999.90;999.90;;;;;;;-9.22;100.00;94271.94;5054449;28;20189;-64
2022/12/13 02:28:58;;;;;;;1999.90;999.90;;;;;;;-9.25;100.00;94271.81;5037045;28;20499;-64
2022/12/13 02:31:39;;;;;;;1999.90;999.90;;;;;;;-9.25;100.00;94261.22;5054104;28;20177;-63
2022/12/13 02:34:24;;;;;;;1999.90;999.90;;;;;;;-9.24;100.00;94268.06;5054864;28;20166;-62
2022/12/13 02:37:23;;;;;;;1999.90;999.90;;;;;;;-9.25;100.00;94261.22;5053748;28;20265;-60
2022/12/13 02:40:03;;;;;;;1999.90;999.90;;;;;;;-9.28;100.00;94256.56;5054508;28;20467;-63
2022/12/13 02:42:36;;;;;;;1999.90;999.90;;;;;;;-9.26;100.00;94260.44;5053939;28;20166;-64
2022/12/13 02:45:15;;;;;;;1999.90;999.90;;;;;;;-9.27;100.00;94250.19;5053943;28;20166;-62
2022/12/13 02:47:42;;;;;;;1999.90;999.90;;;;;;;-9.29;100.00;94249.72;5054008;28;20265;-63
2022/12/13 02:50:09;;;;;;;1999.90;999.90;;;;;;;-9.27;100.00;94247.53;5054195;28;20180;-64
2022/12/13 02:52:38;;;;;;;1999.90;999.90;;;;;;;-9.23;100.00;94237.91;5053790;28;20178;-64
2022/12/13 02:55:11;;;;;;;1999.90;999.90;;;;;;;-9.26;100.00;94222.69;5054062;28;20507;-64
2022/12/13 02:57:40;;;;;;;1999.90;999.90;;;;;;;-9.32;100.00;94219.44;5054334;28;20174;-60
2022/12/13 03:00:12;;;;;;;1999.90;999.90;;;;;;;-9.33;100.00;94223.13;5053941;28;20197;-61
2022/12/13 03:03:02;;;;;;;1999.90;999.90;;;;;;;-9.32;100.00;94216.00;5053758;28;20181;-61
2022/12/13 03:08:43;;;;;;;1999.90;999.90;;;;;;;-9.31;100.00;94215.69;5054920;28;20173;-61
2022/12/13 03:11:12;;;;;;;1999.90;999.90;;;;;;;-9.34;100.00;94203.09;5053701;28;20430;-59
2022/12/13 03:13:50;;;;;;;1999.90;999.90;;;;;;;-9.28;100.00;94203.72;5053524;28;20171;-61
2022/12/13 03:16:25;;;;;;;1999.90;999.90;;;;;;;-9.31;100.00;94201.69;5053395;28;20170;-61
2022/12/13 03:18:58;;;;;;;1999.90;999.90;;;;;;;-9.35;100.00;94203.41;5053604;28;20311;-61
2022/12/13 03:21:23;;;;;;;1999.90;999.90;;;;;;;-9.37;100.00;94195.78;5053421;28;20420;-60
2022/12/13 03:23:49;;;;;;;1999.90;999.90;;;;;;;-9.39;100.00;94202.47;5053703;28;20494;-61
2022/12/13 03:26:19;;;;;;;1999.90;999.90;;;;;;;-9.41;100.00;94197.50;5053336;28;20177;-61
2022/12/13 03:28:44;;;;;;;1999.90;999.90;;;;;;;-9.43;100.00;94202.31;5053713;28;20166;-61
2022/12/13 03:31:09;;;;;;;1999.90;999.90;;;;;;;-9.48;100.00;94199.81;5053301;28;20185;-66
2022/12/13 03:33:35;;;;;;;1999.90;999.90;;;;;;;-9.45;100.00;94195.78;5057373;28;20166;-65
2022/12/13 03:36:01;;;;;;;1999.90;999.90;;;;;;;-9.48;100.00;94194.53;5057062;28;20202;-64
2022/12/13 03:38:28;;;;;;;1999.90;999.90;;;;;;;-9.56;100.00;94191.88;5057305;28;20208;-66
2022/12/13 03:40:59;;;;;;;1999.90;999.90;;;;;;;-9.61;100.00;94189.38;5057099;28;20194;-65
2022/12/13 03:43:25;;;;;;;1999.90;999.90;;;;;;;-9.54;100.00;94189.72;5058437;28;20166;-65
2022/12/13 03:45:52;;;;;;;1999.90;999.90;;;;;;;-9.55;100.00;94182.88;5057162;28;20507;-65
2022/12/13 03:48:18;;;;;;;1999.90;999.90;;;;;;;-9.58;100.00;94178.22;5057979;28;20255;-59
2022/12/13 03:50:43;;;;;;;1999.90;999.90;;;;;;;-9.59;100.00;94177.41;5057404;28;20174;-62
2022/12/13 03:53:08;;;;;;;1999.90;999.90;;;;;;;-9.58;100.00;94178.22;5056673;28;20174;-64
2022/12/13 03:55:34;;;;;;;1999.90;999.90;;;;;;;-9.61;100.00;94162.97;5056913;28;20235;-65
2022/12/13 03:57:59;;;;;;;1999.90;999.90;;;;;;;-9.58;100.00;94165.00;5057561;28;20182;-63
2022/12/13 04:00:24;;;;;;;1999.90;999.90;;;;;;;-9.62;100.00;94158.78;5056976;28;20197;-64
2022/12/13 04:02:50;;;;;;;1999.90;999.90;;;;;;;-9.60;100.00;94148.69;5056974;28;20181;-64
2022/12/13 04:05:15;;;;;;;1999.90;999.90;;;;;;;-9.58;100.00;94149.94;5056836;28;20593;-64
2022/12/13 04:07:40;;;;;;;1999.90;999.90;;;;;;;-9.59;100.00;94155.53;5056945;28;20170;-71
2022/12/13 04:10:06;;;;;;;1999.90;999.90;;;;;;;-9.59;100.00;94150.25;5056247;28;20265;-62
2022/12/13 04:15:16;;;;;;;1999.90;999.90;;;;;;;-9.64;100.00;94153.81;5057761;28;20261;-61
2022/12/13 04:17:41;;;;;;;1999.90;999.90;;;;;;;-9.63;100.00;94147.44;5056671;28;20214;-61
2022/12/13 04:20:07;;;;;;;1999.90;999.90;;;;;;;-9.63;100.00;94155.38;5056570;28;20267;-62
2022/12/13 04:22:32;;;;;;;1999.90;999.90;;;;;;;-9.63;100.00;94155.38;5056475;28;20170;-61
2022/12/13 04:24:57;;;;;;;1999.90;999.90;;;;;;;-9.64;100.00;94161.72;5056525;28;20257;-63
2022/12/13 04:27:23;;;;;;;1999.90;999.90;;;;;;;-9.66;100.00;94166.53;5056407;28;20239;-71
2022/12/13 04:29:48;;;;;;;1999.90;999.90;;;;;;;-9.65;100.00;94156.75;5056528;28;20176;-65
2022/12/13 04:32:13;;;;;;;1999.90;999.90;;;;;;;-9.66;100.00;94161.25;5056279;28;20312;-63
2022/12/13 04:34:39;;;;;;;1999.90;999.90;;;;;;;-9.70;100.00;94162.19;5056760;28;20236;-64
2022/12/13 04:37:04;;;;;;;1999.90;999.90;;;;;;;-9.76;100.00;94163.41;5055934;28;20190;-64
2022/12/13 04:39:30;;;;;;;1999.90;999.90;;;;;;;-9.76;100.00;94163.41;5056906;28;20213;-65
2022/12/13 04:41:55;;;;;;;1999.90;999.90;;;;;;;-9.79;100.00;94162.16;5055919;28;20174;-64
2022/12/13 04:44:20;;;;;;;1999.90;999.90;;;;;;;-9.77;100.00;94164.50;5054857;28;20178;-59
2022/12/13 04:46:46;;;;;;;1999.90;999.90;;;;;;;-9.80;100.00;94160.59;5056573;28;20208;-60
2022/12/13 04:49:11;;;;;;;1999.90;999.90;;;;;;;-9.81;100.00;94156.41;5055771;28;20190;-60
2022/12/13 04:51:36;;;;;;;1999.90;999.90;;;;;;;-9.79;100.00;94153.47;5056082;28;20177;-60
2022/12/13 04:54:02;;;;;;;1999.90;999.90;;;;;;;-9.78;100.00;94155.00;5055883;28;20233;-61
2022/12/13 04:56:27;;;;;;;1999.90;999.90;;;;;;;-9.77;100.00;94153.94;5056596;28;20181;-61
2022/12/13 04:58:52;;;;;;;1999.90;999.90;;;;;;;-9.74;100.00;94161.22;5055319;28;20177;-60
2022/12/13 05:01:18;;;;;;;1999.90;999.90;;;;;;;-9.76;100.00;94150.22;5056214;28;20170;-70
2022/12/13 05:03:43;;;;;;;1999.90;999.90;;;;;;;-9.77;100.00;94156.59;5056144;28;20190;-69
2022/12/13 05:06:12;;;;;;;1999.90;999.90;;;;;;;-9.78;100.00;94147.09;5056366;28;20228;-62
2022/12/13 05:08:38;;;;;;;1999.90;999.90;;;;;;;-9.76;100.00;94150.22;5056068;28;20193;-63
2022/12/13 05:11:04;;;;;;;1999.90;999.90;;;;;;;-9.77;100.00;94143.38;5055960;28;20420;-63
2022/12/13 05:13:29;;;;;;;1999.90;999.90;;;;;;;-9.77;100.00;94144.16;5055290;28;20170;-62
2022/12/13 05:16:00;;;;;;;1999.90;999.90;;;;;;;-9.74;100.00;94137.47;5055244;28;20230;-63
2022/12/13 05:18:26;;;;;;;1999.90;999.90;;;;;;;-9.76;100.00;94139.66;5055094;28;20272;-63
2022/12/13 05:20:52;;;;;;;1999.90;999.90;;;;;;;-9.77;100.00;94138.13;5055037;28;20194;-63
2022/12/13 05:23:19;;;;;;;1999.90;999.90;;;;;;;-9.80;100.00;94138.72;5055468;28;20478;-59
2022/12/13 05:25:45;;;;;;;1999.90;999.90;;;;;;;-9.80;100.00;94134.19;5055032;28;20170;-59
2022/12/13 05:28:11;;;;;;;1999.90;999.90;;;;;;;-9.80;100.00;94134.19;5055190;28;20508;-59
2022/12/13 05:30:38;;;;;;;1999.90;999.90;;;;;;;-9.79;100.00;94135.00;5054899;28;20174;-59
2022/12/13 05:33:03;;;;;;;1999.90;999.90;;;;;;;-9.83;100.00;94136.69;5055525;28;20181;-60
2022/12/13 05:35:29;;;;;;;1999.90;999.90;;;;;;;-9.81;100.00;94129.25;5055216;28;20413;-60
2022/12/13 05:37:54;;;;;;;1999.90;999.90;;;;;;;-9.82;100.00;94141.66;5055048;28;20170;-63
2022/12/13 05:40:20;;;;;;;1999.90;999.90;;;;;;;-9.87;100.00;94133.91;5055378;28;20197;-61
2022/12/13 05:42:45;;;;;;;1999.90;999.90;;;;;;;-9.85;100.00;94131.72;5054363;28;20311;-58
2022/12/13 05:45:11;;;;;;;1999.90;999.90;;;;;;;-9.80;100.00;94130.81;5054685;28;20216;-60
2022/12/13 05:47:36;;;;;;;1999.90;999.90;;;;;;;-9.82;100.00;94130.31;5054524;28;20177;-59
2022/12/13 05:50:02;;;;;;;1999.90;999.90;;;;;;;-9.81;100.00;94126.63;5054229;28;20178;-59
2022/12/13 05:52:27;;;;;;;1999.90;999.90;;;;;;;-9.82;100.00;94130.31;5054548;28;20264;-58
2022/12/13 05:54:55;;;;;;;1999.90;999.90;;;;;;;-9.84;100.00;94133.25;5054644;28;20233;-59
2022/12/13 05:57:20;;;;;;;1999.90;999.90;;;;;;;-9.85;100.00;94134.34;5055020;28;20204;-59
2022/12/13 05:59:46;;;;;;;1999.90;999.90;;;;;;;-9.84;100.00;94132.50;5055136;28;20461;-63
2022/12/13 06:02:11;;;;;;;1999.90;999.90;;;;;;;-9.78;100.00;94133.91;5054798;28;20181;-63
2022/12/13 06:04:37;;;;;;;1999.90;999.90;;;;;;;-9.82;100.00;94131.09;5054605;28;20202;-63
2022/12/13 06:07:02;;;;;;;1999.90;999.90;;;;;;;-9.86;100.00;94124.91;5054415;28;20178;-62
2022/12/13 06:09:27;;;;;;;1999.90;999.90;;;;;;;-9.86;100.00;94116.19;5054756;28;20498;-63
2022/12/13 06:11:53;;;;;;;1999.90;999.90;;;;;;;-9.81;100.00;94121.34;5054497;28;20228;-62
2022/12/13 06:14:18;;;;;;;1999.90;999.90;;;;;;;-9.86;100.00;94124.91;5054363;28;20185;-62
2022/12/13 06:16:43;;;;;;;1999.90;999.90;;;;;;;-9.85;100.00;94121.16;5054748;28;20170;-63
2022/12/13 06:19:09;;;;;;;1999.90;999.90;;;;;;;-9.85;100.00;94125.66;5053756;28;20174;-62
2022/12/13 06:21:34;;;;;;;1999.90;999.90;;;;;;;-9.83;100.00;94136.69;5054232;28;20246;-62
2022/12/13 06:24:00;;;;;;;1999.90;999.90;;;;;;;-9.86;100.00;94134.66;5054125;28;20194;-62
2022/12/13 06:26:25;;;;;;;1999.90;999.90;;;;;;;-9.86;100.00;94130.16;5054847;28;20170;-61
2022/12/13 06:28:50;;;;;;;1999.90;999.90;;;;;;;-9.86;100.00;94132.03;5054075;28;20189;-63
2022/12/13 06:31:16;;;;;;;1999.90;999.90;;;;;;;-9.84;100.00;94137.78;5054307;28;20185;-62
2022/12/13 06:33:41;;;;;;;1999.90;999.90;;;;;;;-9.87;100.00;94136.53;5054359;28;20536;-62
2022/12/13 06:36:07;;;;;;;1999.90;999.90;;;;;;;-9.88;100.00;94136.84;5053548;28;20170;-64
2022/12/13 06:38:32;;;;;;;1999.90;999.90;;;;;;;-9.86;100.00;94139.94;5053962;28;20174;-59
2022/12/13 06:41:13;;;;;;;1999.90;999.90;;;;;;;-9.90;100.00;94150.34;5053759;28;20205;-59
2022/12/13 06:43:45;;;;;;;1999.90;999.90;;;;;;;-9.83;100.00;94152.53;5053743;28;20174;-60
2022/12/13 06:46:11;;;;;;;1999.90;999.90;;;;;;;-9.85;100.00;94141.50;5053541;28;20466;-60
2022/12/13 06:48:39;;;;;;;1999.90;999.90;;;;;;;-9.80;100.00;94144.00;5053488;28;20428;-60
2022/12/13 06:51:05;;;;;;;1999.90;999.90;;;;;;;-9.78;100.00;94147.09;5053670;28;20425;-60
2022/12/13 06:53:31;;;;;;;1999.90;999.90;;;;;;;-9.76;100.00;94151.00;5054008;28;20181;-61
2022/12/13 06:56:07;;;;;;;1999.90;999.90;;;;;;;-9.75;100.00;94147.28;5053513;28;20178;-66
2022/12/13 06:58:33;;;;;;;1999.90;999.90;;;;;;;-9.72;100.00;94146.66;5053850;28;20169;-63
2022/12/13 07:01:11;;;;;;;1999.90;999.90;;;;;;;-9.84;100.00;94159.66;5053957;28;20551;-63
2022/12/13 07:03:37;;;;;;;1999.90;999.90;;;;;;;-9.84;100.00;94158.91;5053956;28;20440;-64
2022/12/13 07:06:22;;;;;;;1999.90;999.90;;;;;;;-9.54;100.00;94169.38;5053048;28;20432;-63
2022/12/13 07:08:51;;;;;;;1999.90;999.90;;;;;;;-9.11;100.00;94164.88;5053114;28;20212;-64
2022/12/13 07:11:18;;;;;;;1999.90;999.90;;;;;;;-8.73;100.00;94167.66;5053311;28;20421;-61
2022/12/13 07:13:43;;;;;;;1999.90;999.90;;;;;;;-8.21;100.00;94163.81;5053345;28;20178;-59
2022/12/13 07:16:10;;;;;;;1999.90;999.90;;;;;;;-8.10;100.00;94176.34;5053267;28;20236;-59
2022/12/13 07:18:35;;;;;;;1999.90;999.90;;;;;;;-7.77;100.00;94185.25;5053080;28;20222;-58
2022/12/13 07:21:05;;;;;;;1999.90;999.90;;;;;;;-7.27;100.00;94214.47;5053570;28;20206;-59
2022/12/13 07:23:30;;;;;;;1999.90;999.90;;;;;;;-7.27;100.00;94241.75;5053154;28;20182;-59
2022/12/13 07:25:56;;;;;;;1999.90;999.90;;;;;;;-7.27;100.00;94278.06;5053421;28;20227;-57
2022/12/13 07:28:21;;;;;;;1999.90;999.90;;;;;;;-6.30;100.00;94288.22;5054247;28;20185;-65
2022/12/13 07:30:47;;;;;;;1999.90;999.90;;;;;;;-5.99;100.00;94325.75;5053197;28;20182;-65
2022/12/13 07:33:13;;;;;;;1999.90;999.90;;;;;;;-6.30;100.00;94348.50;5052687;28;20178;-62
2022/12/13 07:35:39;;;;;;;1999.90;999.90;;;;;;;-7.16;100.00;94374.69;5053519;28;20195;-61
2022/12/13 07:38:07;;;;;;;1999.90;999.90;;;;;;;-7.70;100.00;94373.59;5052990;28;20173;-61
2022/12/13 07:40:33;;;;;;;1999.90;999.90;;;;;;;-7.40;100.00;94385.06;5053001;28;20206;-62
2022/12/13 07:42:59;;;;;;;1999.90;999.90;;;;;;;-6.60;100.00;94379.56;5053683;28;20186;-62
2022/12/13 07:45:24;;;;;;;1999.90;999.90;;;;;;;-5.88;100.00;94387.22;5052853;28;20175;-61
2022/12/13 07:47:50;;;;;;;1999.90;999.90;;;;;;;-5.22;100.00;94392.19;5053148;28;20169;-71
2022/12/13 07:50:16;;;;;;;1999.90;999.90;;;;;;;-4.77;100.00;94403.59;5053580;28;20205;-62
2022/12/13 07:52:41;;;;;;;1999.90;999.90;;;;;;;-4.85;100.00;94425.75;5052975;28;20178;-61
2022/12/13 07:55:08;;;;;;;1999.90;999.90;;;;;;;-5.20;100.00;94429.91;5053057;28;20181;-61
2022/12/13 07:57:33;;;;;;;1999.90;999.90;;;;;;;-4.57;100.00;94434.69;5052880;28;20179;-62
2022/12/13 07:59:59;;;;;;;1999.90;999.90;;;;;;;-4.06;100.00;94443.88;5053308;28;20201;-61
2022/12/13 08:02:25;;;;;;;1999.90;999.90;;;;;;;-4.32;100.00;94441.56;5053775;28;20179;-61
2022/12/13 08:04:51;;;;;;;1999.90;999.90;;;;;;;-4.92;100.00;94454.78;5052910;28;20224;-61
2022/12/13 08:07:16;;;;;;;1999.90;999.90;;;;;;;-4.36;100.00;94451.34;5053128;28;20237;-62
2022/12/13 08:09:42;;;;;;;1999.90;999.90;;;;;;;-4.78;100.00;94463.25;5053351;28;20185;-69
2022/12/13 08:12:07;;;;;;;1999.90;999.90;;;;;;;-5.00;100.00;94460.19;5052599;28;20197;-69
2022/12/13 08:14:33;;;;;;;1999.90;999.90;;;;;;;-4.73;100.00;94460.38;5053629;28;20185;-69
2022/12/13 08:16:59;;;;;;;1999.90;999.90;;;;;;;-4.64;100.00;94455.75;5052821;28;20206;-69
2022/12/13 08:19:24;;;;;;;1999.90;999.90;;;;;;;-4.42;100.00;94459.84;5054450;28;20210;-69
2022/12/13 08:21:54;;;;;;;1999.90;999.90;;;;;;;-3.84;100.00;94446.84;5056684;28;20170;-68
2022/12/13 08:24:20;;;;;;;1999.90;999.90;;;;;;;-3.86;100.00;94450.97;5056120;28;20235;-65
2022/12/13 08:26:45;;;;;;;1999.90;999.90;;;;;;;-4.12;100.00;94448.66;5056478;28;20178;-64
2022/12/13 08:29:14;;;;;;;1999.90;999.90;;;;;;;-4.20;100.00;94452.22;5056682;28;20188;-67
2022/12/13 08:31:39;;;;;;;1999.90;999.90;;;;;;;-3.72;100.00;94449.50;5055706;28;20264;-67
2022/12/13 08:34:05;;;;;;;1999.90;999.90;;;;;;;-4.00;100.00;94448.63;5056692;28;20214;-68
2022/12/13 08:36:30;;;;;;;1999.90;999.90;;;;;;;-5.24;100.00;94455.56;5056819;28;20236;-68
2022/12/13 08:38:57;;;;;;;1999.90;999.90;;;;;;;-5.81;100.00;94464.53;5056097;28;20235;-67
2022/12/13 08:41:23;;;;;;;1999.90;999.90;;;;;;;-6.07;100.00;94464.69;5055830;28;20296;-66
2022/12/13 08:43:49;;;;;;;1999.90;999.90;;;;;;;-5.35;100.00;94458.97;5055835;28;20181;-59
2022/12/13 08:46:14;;;;;;;1999.90;999.90;;;;;;;-4.76;100.00;94461.06;5056025;28;20220;-69
2022/12/13 08:48:40;;;;;;;1999.90;999.90;;;;;;;-4.24;100.00;94462.00;5055949;28;20229;-66
2022/12/13 08:51:10;;;;;;;1999.90;999.90;;;;;;;-3.86;100.00;94467.72;5055865;28;20177;-68
2022/12/13 08:53:36;;;;;;;1999.90;999.90;;;;;;;-3.15;100.00;94475.09;5055966;28;20205;-66
2022/12/13 08:56:03;;;;;;;1999.90;999.90;;;;;;;-3.83;100.00;94467.06;5055862;28;20178;-66
2022/12/13 08:58:28;;;;;;;1999.90;999.90;;;;;;;-3.86;100.00;94467.72;5055737;28;20174;-67
2022/12/13 09:00:55;;;;;;;1999.90;999.90;;;;;;;-3.73;100.00;94471.94;5055646;28;20205;-67
2022/12/13 09:03:20;;;;;;;1999.90;999.90;;;;;;;-4.36;100.00;94483.31;5055527;28;20180;-65
2022/12/13 09:05:46;;;;;;;1999.90;999.90;;;;;;;-4.34;100.00;94481.06;5055753;28;20170;-59
2022/12/13 09:08:11;;;;;;;1999.90;999.90;;;;;;;-4.21;100.00;94485.31;5055442;28;20261;-59
2022/12/13 09:10:37;;;;;;;1999.90;999.90;;;;;;;-3.26;100.00;94479.38;5056165;28;20174;-59
2022/12/13 09:13:02;;;;;;;1999.90;999.90;;;;;;;-3.97;100.00;94476.53;5055479;28;20178;-60
2022/12/13 09:15:30;;;;;;;1999.90;999.90;;;;;;;-4.04;100.00;94477.06;5055926;28;20176;-59
2022/12/13 09:17:56;;;;;;;1999.90;999.90;;;;;;;-4.34;100.00;94473.06;5055415;28;20213;-58
2022/12/13 09:20:21;;;;;;;1999.90;999.90;;;;;;;-3.90;100.00;94471.38;5055886;28;20194;-65
2022/12/13 09:22:46;;;;;;;1999.90;999.90;;;;;;;-3.89;100.00;94470.31;5055109;28;20170;-68
2022/12/13 09:25:12;;;;;;;1999.90;999.90;;;;;;;-3.75;100.00;94460.81;5055180;28;20304;-69
2022/12/13 09:27:37;;;;;;;1999.90;999.90;;;;;;;-3.56;100.00;94469.00;5056368;28;20273;-69
2022/12/13 09:30:05;;;;;;;1999.90;999.90;;;;;;;-4.87;100.00;94480.41;5054709;28;20175;-69
2022/12/13 09:32:31;;;;;;;1999.90;999.90;;;;;;;-3.89;100.00;94468.41;5055200;28;20179;-68
2022/12/13 09:34:56;;;;;;;1999.90;999.90;;;;;;;-3.81;100.00;94475.53;5055077;28;20170;-68
2022/12/13 09:37:22;;;;;;;1999.90;999.90;;;;;;;-4.28;100.00;94471.75;5054788;28;20184;-68
2022/12/13 09:39:47;;;;;;;1999.90;999.90;;;;;;;-3.80;100.00;94455.72;5055161;28;20198;-57
2022/12/13 09:42:21;;;;;;;1999.90;999.90;;;;;;;-4.65;100.00;94477.38;5054962;28;20178;-65
2022/12/13 09:44:53;;;;;;;1999.90;999.90;;;;;;;-5.06;100.00;94462.28;5056442;28;20231;-65
2022/12/13 09:47:27;;;;;;;1999.90;999.90;;;;;;;-5.17;100.00;94463.78;5054856;28;20241;-64
2022/12/13 09:49:53;;;;;;;1999.90;999.90;;;;;;;-4.67;100.00;94452.94;5055712;28;20177;-63
2022/12/13 09:52:22;;;;;;;1999.90;999.90;;;;;;;-4.16;100.00;94453.09;5054859;28;20208;-64
2022/12/13 09:54:51;;;;;;;1999.90;999.90;;;;;;;-4.09;100.00;94457.88;5055303;28;20174;-64
2022/12/13 09:57:25;;;;;;;1999.90;999.90;;;;;;;-4.00;100.00;94450.53;5054334;28;20173;-65
2022/12/13 09:59:50;;;;;;;1999.90;999.90;;;;;;;-3.86;100.00;94451.72;5055222;28;20224;-67
2022/12/13 10:02:30;;;;;;;1999.90;999.90;;;;;;;-4.59;100.00;94449.44;5054564;28;20173;-68
2022/12/13 10:05:24;;;;;;;1999.90;999.90;;;;;;;-4.32;100.00;94441.56;5054666;28;20247;-68
2022/12/13 10:07:52;;;;;;;1999.90;999.90;;;;;;;-4.52;100.00;94442.44;5026083;28;20182;-67
2022/12/13 10:10:18;;;;;;;1999.90;999.90;;;;;;;-4.45;100.00;94433.88;5054284;28;20182;-66
2022/12/13 10:12:49;;;;;;;1999.90;999.90;;;;;;;-4.47;100.00;94434.25;5054408;28;20216;-66
2022/12/13 10:15:18;;;;;;;1999.90;999.90;;;;;;;-4.40;100.00;94437.09;5054058;28;20194;-65
2022/12/13 10:17:47;;;;;;;1999.90;999.90;;;;;;;-4.20;100.00;94435.44;5055073;28;20218;-62
2022/12/13 10:20:18;;;;;;;1999.90;999.90;;;;;;;-4.75;100.00;94435.19;5054790;28;20198;-63
2022/12/13 10:22:44;;;;;;;1999.90;999.90;;;;;;;-4.89;100.00;94432.84;5054623;28;20170;-62
2022/12/13 10:25:10;;;;;;;1999.90;999.90;;;;;;;-4.72;100.00;94427.34;5054604;28;20168;-63
2022/12/13 10:27:39;;;;;;;1999.90;999.90;;;;;;;-4.91;100.00;94424.44;5053869;28;20260;-63
2022/12/13 10:30:21;;;;;;;1999.90;999.90;;;;;;;-4.38;100.00;94421.59;5054444;28;20208;-63
2022/12/13 10:32:56;;;;;;;1999.90;999.90;;;;;;;-4.74;100.00;94432.22;5054610;28;20181;-66
2022/12/13 10:35:39;;;;;;;1999.90;999.90;;;;;;;-5.04;100.00;94424.72;5053764;28;20165;-66
2022/12/13 10:38:09;;;;;;;1999.90;999.90;;;;;;;-4.91;100.00;94416.44;5053980;28;20170;-65
2022/12/13 10:40:37;;;;;;;1999.90;999.90;;;;;;;-5.17;100.00;94407.19;5053965;28;20351;-64
2022/12/13 10:43:10;;;;;;;1999.90;999.90;;;;;;;-5.43;100.00;94399.44;5052971;28;20252;-64
2022/12/13 10:45:35;;;;;;;1999.90;999.90;;;;;;;-5.40;100.00;94409.44;5054400;28;20226;-64
2022/12/13 10:48:02;;;;;;;1999.90;999.90;;;;;;;-5.30;100.00;94395.72;5053460;28;20178;-63
2022/12/13 10:50:29;;;;;;;1999.90;999.90;;;;;;;-5.00;100.00;94385.69;5054107;28;20180;-63
2022/12/13 10:52:56;;;;;;;1999.90;999.90;;;;;;;-5.23;100.00;94393.31;5053434;28;20170;-68
2022/12/13 10:55:30;;;;;;;1999.90;999.90;;;;;;;-5.39;100.00;94394.25;5053836;28;20257;-64
2022/12/13 10:58:00;;;;;;;1999.90;999.90;;;;;;;-5.33;100.00;94391.06;5053573;28;20174;-63